createdAt,value
2019-04-06T00:00:13.097Z,82.17
2019-04-06T00:02:41.737Z,76.22
2019-04-06T00:05:11.099Z,90.28
2019-04-06T00:07:39.678Z,76.35
2019-04-06T00:10:08.648Z,85.38
2019-04-06T00:12:37.401Z,84.67
2019-04-06T00:15:07.723Z,80.83
2019-04-06T00:17:36.290Z,90.32
2019-04-06T00:20:06.607Z,87.60
2019-04-06T00:22:35.190Z,91.00
2019-04-06T00:25:04.786Z,89.67
2019-04-06T00:27:33.383Z,84.03
2019-04-06T00:30:01.990Z,88.67
2019-04-06T00:32:38.196Z,88.75
2019-04-06T00:35:07.005Z,92.75
2019-04-06T00:37:36.299Z,84.54
2019-04-06T00:40:05.649Z,83.67
2019-04-06T00:42:34.290Z,93.40
2019-04-06T00:45:03.255Z,93.82
2019-04-06T00:47:31.980Z,88.95
2019-04-06T00:50:00.568Z,89.35
2019-04-06T00:52:29.254Z,96.17
2019-04-06T00:54:57.948Z,87.10
2019-04-06T00:57:26.546Z,85.57
2019-04-06T00:59:55.169Z,83.27
2019-04-06T01:02:23.853Z,87.40
2019-04-06T01:04:52.416Z,87.57
2019-04-06T01:07:23.172Z,91.00
2019-04-06T01:09:51.729Z,95.57
2019-04-06T01:12:20.438Z,85.67
2019-04-06T01:14:49.390Z,96.92
2019-04-06T01:17:18.052Z,93.95
2019-04-06T01:19:47.025Z,91.67
2019-04-06T01:22:15.763Z,88.07
2019-04-06T01:24:44.419Z,92.92
2019-04-06T01:27:13.045Z,91.08
2019-04-06T01:29:41.616Z,88.10
2019-04-06T01:32:10.185Z,98.92
2019-04-06T01:34:38.909Z,98.65
2019-04-06T01:37:07.484Z,96.87
2019-04-06T01:39:36.065Z,96.85
2019-04-06T01:42:04.708Z,101.10
2019-04-06T01:44:33.347Z,97.90
2019-04-06T01:47:01.927Z,100.45
2019-04-06T01:49:30.503Z,92.10
2019-04-06T01:51:59.148Z,96.47
2019-04-06T01:54:27.727Z,93.82
2019-04-06T01:56:56.576Z,104.55
2019-04-06T01:59:25.179Z,102.70
2019-04-06T02:01:55.414Z,97.63
2019-04-06T02:04:24.033Z,101.53
2019-04-06T02:06:52.536Z,100.40
2019-04-06T02:09:21.278Z,99.92
2019-04-06T02:11:49.861Z,93.27
2019-04-06T02:14:18.522Z,98.90
2019-04-06T02:16:47.543Z,112.60
2019-04-06T02:19:16.177Z,100.20
2019-04-06T02:21:44.881Z,105.80
2019-04-06T02:24:13.435Z,100.95
2019-04-06T02:26:42.014Z,106.70
2019-04-06T02:29:10.778Z,105.40
2019-04-06T02:31:56.022Z,95.75
2019-04-06T02:34:29.373Z,109.22
2019-04-06T02:37:02.515Z,112.57
2019-04-06T02:39:38.760Z,101.35
2019-04-06T02:42:18.309Z,107.05
2019-04-06T02:44:46.946Z,109.65
2019-04-06T02:47:15.763Z,111.47
2019-04-06T02:49:44.657Z,106.40
2019-04-06T02:52:13.275Z,105.63
2019-04-06T02:54:41.888Z,116.62
2019-04-06T02:57:10.508Z,112.95
2019-04-06T02:59:39.340Z,116.35
2019-04-06T03:02:08.288Z,111.32
2019-04-06T03:04:36.872Z,113.97
2019-04-06T03:07:05.699Z,113.47
2019-04-06T03:09:34.396Z,114.10
2019-04-06T03:12:03.059Z,123.07
2019-04-06T03:14:32.038Z,121.02
2019-04-06T03:17:00.748Z,115.03
2019-04-06T03:19:29.445Z,119.08
2019-04-06T03:21:58.046Z,111.83
2019-04-06T03:24:26.914Z,121.47
2019-04-06T03:27:01.970Z,118.08
2019-04-06T03:29:26.095Z,118.60
2019-04-06T03:31:54.713Z,118.17
2019-04-06T03:34:23.490Z,114.85
2019-04-06T03:36:52.288Z,130.00
2019-04-06T03:39:20.858Z,118.13
2019-04-06T03:41:49.511Z,120.73
2019-04-06T03:44:18.745Z,117.60
2019-04-06T03:46:47.418Z,107.63
2019-04-06T03:49:16.169Z,119.17
2019-04-06T03:51:45.007Z,127.37
2019-04-06T03:54:13.635Z,123.62
2019-04-06T03:56:42.430Z,113.42
2019-04-06T03:59:11.226Z,111.83
2019-04-06T04:01:40.849Z,115.88
2019-04-06T04:04:09.403Z,121.05
2019-04-06T04:06:38.089Z,120.60
2019-04-06T04:09:06.869Z,118.57
2019-04-06T04:11:35.531Z,114.05
2019-04-06T04:14:04.256Z,112.25
2019-04-06T04:16:32.828Z,117.62
2019-04-06T04:19:01.530Z,115.37
2019-04-06T04:21:30.255Z,112.08
2019-04-06T04:23:59.342Z,113.45
2019-04-06T04:26:28.008Z,113.28
2019-04-06T04:28:56.588Z,116.75
2019-04-06T04:31:25.465Z,115.77
2019-04-06T04:33:54.081Z,110.70
2019-04-06T04:36:22.667Z,118.15
2019-04-06T04:38:51.473Z,123.13
2019-04-06T04:41:20.340Z,114.60
2019-04-06T04:43:49.107Z,111.13
2019-04-06T04:46:17.702Z,106.25
2019-04-06T04:48:46.420Z,113.63
2019-04-06T04:51:15.033Z,106.47
2019-04-06T04:53:43.784Z,110.90
2019-04-06T04:56:12.710Z,113.10
2019-04-06T04:58:42.614Z,105.32
2019-04-06T05:01:11.218Z,104.43
2019-04-06T05:03:40.099Z,111.52
2019-04-06T05:06:08.729Z,111.20
2019-04-06T05:08:37.344Z,107.17
2019-04-06T05:11:06.028Z,103.12
2019-04-06T05:13:34.627Z,103.65
2019-04-06T05:16:14.553Z,114.32
2019-04-06T05:18:43.630Z,105.90
2019-04-06T05:21:12.953Z,105.75
2019-04-06T05:23:41.643Z,104.00
2019-04-06T05:26:10.421Z,109.03
2019-04-06T05:28:39.429Z,113.15
2019-04-06T05:31:08.009Z,106.75
2019-04-06T05:33:36.589Z,105.58
2019-04-06T05:36:05.953Z,101.65
2019-04-06T05:38:34.827Z,107.63
2019-04-06T05:41:03.477Z,100.78
2019-04-06T05:43:32.419Z,104.78
2019-04-06T05:46:01.011Z,102.07
2019-04-06T05:48:29.614Z,106.12
2019-04-06T05:50:58.485Z,108.40
2019-04-06T05:53:27.092Z,109.63
2019-04-06T05:55:55.969Z,110.17
2019-04-06T05:58:24.714Z,99.52
2019-04-06T06:00:53.289Z,104.63
2019-04-06T06:03:21.890Z,95.87
2019-04-06T06:05:51.144Z,103.53
2019-04-06T06:08:19.931Z,96.53
2019-04-06T06:10:48.743Z,97.12
2019-04-06T06:13:17.327Z,107.05
2019-04-06T06:15:45.937Z,97.92
2019-04-06T06:18:25.387Z,104.58
2019-04-06T06:20:44.839Z,103.15
2019-04-06T06:23:13.425Z,95.85
2019-04-06T06:25:42.258Z,92.03
2019-04-06T06:28:14.990Z,102.78
2019-04-06T06:30:41.223Z,95.72
2019-04-06T06:33:10.044Z,95.45
2019-04-06T06:35:38.743Z,98.52
2019-04-06T06:38:07.436Z,98.05
2019-04-06T06:40:36.020Z,95.07
2019-04-06T06:43:04.749Z,97.88
2019-04-06T06:45:33.727Z,103.20
2019-04-06T06:48:02.374Z,104.55
2019-04-06T06:50:31.049Z,102.17
2019-04-06T06:52:59.658Z,99.30
2019-04-06T06:55:28.247Z,99.90
2019-04-06T06:57:57.595Z,95.90
2019-04-06T07:00:26.195Z,103.83
2019-04-06T07:02:54.869Z,101.92
2019-04-06T07:05:23.642Z,94.75
2019-04-06T07:07:52.474Z,98.60
2019-04-06T07:10:21.069Z,98.62
2019-04-06T07:12:49.648Z,96.25
2019-04-06T07:15:18.232Z,93.50
2019-04-06T07:17:47.091Z,98.87
2019-04-06T07:20:16.064Z,94.80
2019-04-06T07:22:44.628Z,87.72
2019-04-06T07:25:13.706Z,93.72
2019-04-06T07:27:42.740Z,92.55
2019-04-06T07:30:12.108Z,92.40
2019-04-06T07:32:40.886Z,92.80
2019-04-06T07:35:09.892Z,95.55
2019-04-06T07:37:38.681Z,94.92
2019-04-06T07:40:10.837Z,92.40
2019-04-06T07:42:39.372Z,86.90
2019-04-06T07:45:09.356Z,94.58
2019-04-06T07:47:38.092Z,90.67
2019-04-06T07:50:07.711Z,95.83
2019-04-06T07:52:36.422Z,90.22
2019-04-06T07:55:07.237Z,96.40
2019-04-06T07:57:36.171Z,97.60
2019-04-06T08:00:08.445Z,97.90
2019-04-06T08:02:37.233Z,94.00
2019-04-06T08:05:07.533Z,93.37
2019-04-06T08:07:36.694Z,92.72
2019-04-06T08:10:06.408Z,95.87
2019-04-06T08:12:35.206Z,97.12
2019-04-06T08:15:05.447Z,95.28
2019-04-06T08:17:34.091Z,96.90
2019-04-06T08:20:03.268Z,98.03
2019-04-06T08:22:31.914Z,96.82
2019-04-06T08:25:00.496Z,95.50
2019-04-06T08:27:29.274Z,94.97
2019-04-06T08:29:58.063Z,92.25
2019-04-06T08:32:26.782Z,96.02
2019-04-06T08:34:55.403Z,98.33
2019-04-06T08:37:23.983Z,96.27
2019-04-06T08:39:52.651Z,93.03
2019-04-06T08:42:21.191Z,92.57
2019-04-06T08:44:50.464Z,92.17
2019-04-06T08:47:19.638Z,93.63
2019-04-06T08:49:48.306Z,92.17
2019-04-06T08:52:16.961Z,92.90
2019-04-06T08:54:47.288Z,90.03
2019-04-06T08:57:16.474Z,93.05
2019-04-06T08:59:45.396Z,92.37
2019-04-06T09:02:14.197Z,96.63
2019-04-06T09:04:44.130Z,82.25
2019-04-06T09:07:12.745Z,89.03
2019-04-06T09:09:42.287Z,87.06
2019-04-06T09:12:11.275Z,85.45
2019-04-06T09:14:39.881Z,85.75
2019-04-06T09:17:08.628Z,89.42
2019-04-06T09:19:41.255Z,90.60
2019-04-06T09:22:09.861Z,84.95
2019-04-06T09:24:40.518Z,82.73
2019-04-06T09:27:18.398Z,82.97
2019-04-06T09:29:47.029Z,80.65
2019-04-06T09:32:15.714Z,78.78
2019-04-06T09:34:52.104Z,78.60
2019-04-06T09:37:21.019Z,76.90
2019-04-06T09:39:50.569Z,77.10
2019-04-06T09:42:20.006Z,74.87
2019-04-06T09:44:50.259Z,75.72
2019-04-06T09:47:24.009Z,74.22
2019-04-06T09:50:10.374Z,75.07
2019-04-06T09:52:43.721Z,74.62
2019-04-06T09:55:42.984Z,80.70
2019-04-06T09:58:29.418Z,77.87
2019-04-06T10:01:01.147Z,76.80
2019-04-06T10:03:34.420Z,76.30
2019-04-06T10:06:16.781Z,80.20
2019-04-06T10:08:56.604Z,78.10
2019-04-06T10:11:28.021Z,80.55
2019-04-06T10:13:59.680Z,77.97
2019-04-06T10:16:35.001Z,77.25
2019-04-06T10:19:06.575Z,83.05
2019-04-06T10:21:48.646Z,85.85
2019-04-06T10:24:19.738Z,80.22
2019-04-06T10:27:03.809Z,84.70
2019-04-06T10:29:47.611Z,81.40
2019-04-06T10:32:18.763Z,77.00
2019-04-06T10:34:49.029Z,85.72
2019-04-06T10:37:21.774Z,82.05
2019-04-06T10:40:04.032Z,79.60
2019-04-06T10:42:38.677Z,75.08
2019-04-06T10:45:12.465Z,72.87
2019-04-06T10:47:58.063Z,71.92
2019-04-06T10:50:28.481Z,65.97
2019-04-06T10:53:01.308Z,71.70
2019-04-06T10:55:34.447Z,71.17
2019-04-06T10:58:15.236Z,71.35
2019-04-06T11:01:01.870Z,66.53
2019-04-06T11:03:38.274Z,70.12
2019-04-06T11:06:08.497Z,74.37
2019-04-06T11:08:41.841Z,67.72
2019-04-06T11:11:28.802Z,73.47
2019-04-06T11:14:05.012Z,67.45
2019-04-06T11:16:35.233Z,76.28
2019-04-06T11:19:05.896Z,75.60
2019-04-06T11:21:44.868Z,71.53
2019-04-06T11:24:26.393Z,77.78
2019-04-06T11:26:56.840Z,79.77
2019-04-06T11:29:29.693Z,70.40
2019-04-06T11:32:06.860Z,84.37
2019-04-06T11:34:48.931Z,73.92
2019-04-06T11:37:33.319Z,65.42
2019-04-06T11:40:06.163Z,65.85
2019-04-06T11:42:48.417Z,67.50
2019-04-06T11:45:18.626Z,65.62
2019-04-06T11:47:54.760Z,67.12
2019-04-06T11:50:25.172Z,64.85
2019-04-06T11:53:10.310Z,81.20
2019-04-06T11:55:40.555Z,74.35
2019-04-06T11:58:23.007Z,70.70
2019-04-06T12:00:56.077Z,73.60
2019-04-06T12:03:35.295Z,75.47
2019-04-06T12:06:20.643Z,73.50
2019-04-06T12:09:08.869Z,76.50
2019-04-06T12:11:39.603Z,73.57
2019-04-06T12:14:22.187Z,74.92
2019-04-06T12:16:58.738Z,70.47
2019-04-06T12:19:38.303Z,72.53
2019-04-06T12:22:20.914Z,71.77
2019-04-06T12:24:59.940Z,72.70
2019-04-06T12:27:46.539Z,73.35
2019-04-06T12:30:23.378Z,71.00
2019-04-06T12:33:10.584Z,67.35
2019-04-06T12:35:43.571Z,71.02
2019-04-06T12:38:30.758Z,72.57
2019-04-06T12:41:14.001Z,67.70
2019-04-06T12:44:00.392Z,70.70
2019-04-06T12:46:33.513Z,63.70
2019-04-06T12:49:06.582Z,65.90
2019-04-06T12:51:55.510Z,63.98
2019-04-06T12:54:44.587Z,59.70
2019-04-06T12:57:32.077Z,59.90
2019-04-06T13:00:03.610Z,58.08
2019-04-06T13:02:51.093Z,64.00
2019-04-06T13:05:33.690Z,62.20
2019-04-06T13:08:06.711Z,65.57
2019-04-06T13:10:38.383Z,61.43
2019-04-06T13:13:11.456Z,70.60
2019-04-06T13:15:57.535Z,69.67
2019-04-06T13:18:31.571Z,67.32
2019-04-06T13:21:07.917Z,64.60
2019-04-06T13:23:53.216Z,57.88
2019-04-06T13:26:33.118Z,64.27
2019-04-06T13:29:10.361Z,64.53
2019-04-06T13:31:53.291Z,62.60
2019-04-06T13:34:24.278Z,63.98
2019-04-06T13:37:00.259Z,63.02
2019-04-06T13:39:30.828Z,59.60
2019-04-06T13:42:03.653Z,58.42
2019-04-06T13:44:50.982Z,61.30
2019-04-06T13:47:21.211Z,59.90
2019-04-06T13:50:04.390Z,59.33
2019-04-06T13:52:49.638Z,61.88
2019-04-06T13:55:36.336Z,60.05
2019-04-06T13:58:07.673Z,61.40
2019-04-06T14:00:57.819Z,55.78
2019-04-06T14:03:28.121Z,55.70
2019-04-06T14:06:14.321Z,57.05
2019-04-06T14:08:48.774Z,53.13
2019-04-06T14:11:35.378Z,59.50
2019-04-06T14:14:18.905Z,56.80
2019-04-06T14:16:50.603Z,60.30
2019-04-06T14:19:20.718Z,59.95
2019-04-06T14:22:07.566Z,59.73
2019-04-06T14:24:53.733Z,61.47
2019-04-06T14:27:30.161Z,58.92
2019-04-06T14:30:07.001Z,57.13
2019-04-06T14:32:55.134Z,62.45
2019-04-06T14:35:25.748Z,56.33
2019-04-06T14:38:12.304Z,56.40
2019-04-06T14:40:54.789Z,56.55
2019-04-06T14:43:29.062Z,57.60
2019-04-06T14:46:00.468Z,61.33
2019-04-06T14:48:33.794Z,61.30
2019-04-06T14:51:19.485Z,59.77
2019-04-06T14:53:53.681Z,59.17
2019-04-06T14:56:40.477Z,52.75
2019-04-06T14:59:21.424Z,57.95
2019-04-06T15:02:10.393Z,60.92
2019-04-06T15:04:55.733Z,58.70
2019-04-06T15:07:34.971Z,59.35
2019-04-06T15:10:18.730Z,59.10
2019-04-06T15:12:49.010Z,62.83
2019-04-06T15:15:19.898Z,68.10
2019-04-06T15:17:56.856Z,65.83
2019-04-06T15:20:27.107Z,62.23
2019-04-06T15:23:13.551Z,68.52
2019-04-06T15:25:45.929Z,69.90
2019-04-06T15:28:34.398Z,65.70
2019-04-06T15:31:13.905Z,68.40
2019-04-06T15:33:47.059Z,70.68
2019-04-06T15:36:23.205Z,73.28
2019-04-06T15:38:54.448Z,67.80
2019-04-06T15:41:36.615Z,70.03
2019-04-06T15:44:07.479Z,62.03
2019-04-06T15:46:41.461Z,65.97
2019-04-06T15:49:14.887Z,65.50
2019-04-06T15:52:10.602Z,67.77
2019-04-06T15:54:48.015Z,67.95
2019-04-06T15:57:24.512Z,66.82
2019-04-06T15:59:54.734Z,61.08
2019-04-06T16:02:37.138Z,66.67
2019-04-06T16:05:09.374Z,64.65
2019-04-06T16:07:39.604Z,66.40
2019-04-06T16:10:10.143Z,63.23
2019-04-06T16:12:40.365Z,64.43
2019-04-06T16:15:11.245Z,58.13
2019-04-06T16:17:41.477Z,65.67
2019-04-06T16:20:14.676Z,61.43
2019-04-06T16:22:52.937Z,67.03
2019-04-06T16:25:30.409Z,64.62
2019-04-06T16:28:07.045Z,67.60
2019-04-06T16:30:42.811Z,69.15
2019-04-06T16:33:16.161Z,67.80
2019-04-06T16:35:55.941Z,66.83
2019-04-06T16:38:38.832Z,67.15
2019-04-06T16:41:15.258Z,67.35
2019-04-06T16:43:46.160Z,67.23
2019-04-06T16:46:31.612Z,63.38
2019-04-06T16:49:07.793Z,57.33
2019-04-06T16:51:54.209Z,63.20
2019-04-06T16:54:31.472Z,61.90
2019-04-06T16:57:20.081Z,63.13
2019-04-06T17:00:17.079Z,59.37
2019-04-06T17:02:55.128Z,56.40
2019-04-06T17:05:34.941Z,62.55
2019-04-06T17:08:14.115Z,57.48
2019-04-06T17:10:48.307Z,61.88
2019-04-06T17:13:28.444Z,57.30
2019-04-06T17:16:01.824Z,61.37
2019-04-06T17:18:48.656Z,59.90
2019-04-06T17:21:22.098Z,58.35
2019-04-06T17:24:10.217Z,60.70
2019-04-06T17:26:41.136Z,65.17
2019-04-06T17:29:17.523Z,63.17
2019-04-06T17:31:50.832Z,63.43
2019-04-06T17:34:36.202Z,62.87
2019-04-06T17:37:16.056Z,64.03
2019-04-06T17:39:46.282Z,63.73
2019-04-06T17:42:23.443Z,61.30
2019-04-06T17:44:54.443Z,65.05
2019-04-06T17:47:41.199Z,69.03
2019-04-06T17:50:20.222Z,65.03
2019-04-06T17:53:07.203Z,69.03
2019-04-06T17:55:43.051Z,69.42
2019-04-06T17:58:18.939Z,65.07
2019-04-06T18:01:01.032Z,66.45
2019-04-06T18:03:47.812Z,66.82
2019-04-06T18:06:22.010Z,69.47
2019-04-06T18:11:28.306Z,61.73
2019-04-06T18:13:57.551Z,67.12
2019-04-06T18:16:30.038Z,70.28
2019-04-06T18:18:58.785Z,67.97
2019-04-06T18:21:27.965Z,71.55
2019-04-06T18:23:56.599Z,69.70
2019-04-06T18:26:26.008Z,65.00
2019-04-06T18:28:55.141Z,67.45
2019-04-06T18:31:33.961Z,73.00
2019-04-06T18:34:02.755Z,67.27
2019-04-06T18:36:51.125Z,66.87
2019-04-06T18:39:20.699Z,66.82
2019-04-06T18:41:49.287Z,65.85
2019-04-06T18:44:17.977Z,68.72
2019-04-06T18:46:46.560Z,66.62
2019-04-06T18:49:15.139Z,64.87
2019-04-06T18:51:43.919Z,69.40
2019-04-06T18:54:12.997Z,65.50
2019-04-06T18:56:42.297Z,63.28
2019-04-06T18:59:11.437Z,67.55
2019-04-06T19:01:40.415Z,65.10
2019-04-06T19:04:09.089Z,64.67
2019-04-06T19:06:38.494Z,66.82
2019-04-06T19:09:20.711Z,67.17
2019-04-06T19:11:39.380Z,64.03
2019-04-06T19:14:07.998Z,63.73
2019-04-06T19:16:36.694Z,70.10
2019-04-06T19:19:06.101Z,64.03
2019-04-06T19:21:35.042Z,65.87
2019-04-06T19:24:03.658Z,69.80
2019-04-06T19:26:33.861Z,64.83
2019-04-06T19:29:02.797Z,62.73
2019-04-06T19:31:31.746Z,60.00
2019-04-06T19:34:00.518Z,63.30
2019-04-06T19:36:29.534Z,59.48
2019-04-06T19:38:58.212Z,61.80
2019-04-06T19:41:27.155Z,65.80
2019-04-06T19:43:55.727Z,63.13
2019-04-06T19:46:24.747Z,64.90
2019-04-06T19:48:53.395Z,61.18
2019-04-06T19:51:21.984Z,61.63
2019-04-06T19:53:51.158Z,58.77
2019-04-06T19:56:20.093Z,58.55
2019-04-06T19:58:49.287Z,62.90
2019-04-06T20:01:17.958Z,67.08
2019-04-06T20:03:46.696Z,64.57
2019-04-06T20:06:15.536Z,63.25
2019-04-06T20:08:44.183Z,64.65
2019-04-06T20:11:12.861Z,64.35
2019-04-06T20:13:41.673Z,58.58
2019-04-06T20:16:10.887Z,63.23
2019-04-06T20:18:40.152Z,64.03
2019-04-06T20:21:09.799Z,60.20
2019-04-06T20:23:39.039Z,60.95
2019-04-06T20:26:09.097Z,62.03
2019-04-06T20:28:39.025Z,61.45
2019-04-06T20:31:08.225Z,56.10
2019-04-06T20:33:46.798Z,56.70
2019-04-06T20:36:07.380Z,59.53
2019-04-06T20:38:36.034Z,58.23
2019-04-06T20:41:05.245Z,62.25
2019-04-06T20:43:34.228Z,58.65
2019-04-06T20:46:03.050Z,57.83
2019-04-06T20:48:31.704Z,59.77
2019-04-06T20:51:00.416Z,61.28
2019-04-06T20:53:28.996Z,57.67
2019-04-06T20:55:57.702Z,62.05
2019-04-06T20:58:26.322Z,59.73
2019-04-06T21:00:55.476Z,59.75
2019-04-06T21:03:24.331Z,57.15
2019-04-06T21:05:53.089Z,62.27
2019-04-06T21:08:21.828Z,58.68
2019-04-06T21:10:50.900Z,60.23
2019-04-06T21:13:20.139Z,63.10
2019-04-06T21:15:48.928Z,59.65
2019-04-06T21:18:17.807Z,58.02
2019-04-06T21:20:48.045Z,60.90
2019-04-06T21:23:17.203Z,58.65
2019-04-06T21:25:46.480Z,56.43
2019-04-06T21:28:15.452Z,57.33
2019-04-06T21:30:44.341Z,55.78
2019-04-06T21:33:13.231Z,55.52
2019-04-06T21:35:42.434Z,57.20
2019-04-06T21:38:12.179Z,56.00
2019-04-06T21:40:41.099Z,58.70
2019-04-06T21:43:09.999Z,58.78
2019-04-06T21:45:39.325Z,56.33
2019-04-06T21:48:08.013Z,55.30
2019-04-06T21:50:36.687Z,61.25
2019-04-06T21:53:05.274Z,56.13
2019-04-06T21:55:33.914Z,60.03
2019-04-06T21:58:03.026Z,57.98
2019-04-06T22:00:50.062Z,58.23
2019-04-06T22:03:19.037Z,60.92
2019-04-06T22:05:47.936Z,58.57
2019-04-06T22:08:16.539Z,65.20
2019-04-06T22:10:45.876Z,64.97
2019-04-06T22:13:15.999Z,61.00
2019-04-06T22:15:45.049Z,70.03
2019-04-06T22:18:14.195Z,64.60
2019-04-06T22:20:43.757Z,62.80
2019-04-06T22:23:13.105Z,61.68
2019-04-06T22:25:42.178Z,59.27
2019-04-06T22:28:10.941Z,62.30
2019-04-06T22:30:40.512Z,61.60
2019-04-06T22:33:09.273Z,68.75
2019-04-06T22:35:39.004Z,62.68
2019-04-06T22:38:08.119Z,65.42
2019-04-06T22:40:37.063Z,65.37
2019-04-06T22:43:05.886Z,61.95
2019-04-06T22:45:35.048Z,61.68
2019-04-06T22:48:03.737Z,66.65
2019-04-06T22:50:32.693Z,58.92
2019-04-06T22:53:01.353Z,63.05
2019-04-06T22:55:29.957Z,64.82
2019-04-06T22:57:58.773Z,63.20
2019-04-06T23:00:32.109Z,67.40
2019-04-06T23:03:05.427Z,64.03
2019-04-06T23:05:47.970Z,64.07
2019-04-06T23:08:16.830Z,69.07
2019-04-06T23:10:45.688Z,60.05
2019-04-06T23:13:15.040Z,66.28
2019-04-06T23:15:43.959Z,63.57
2019-04-06T23:18:12.848Z,66.65
2019-04-06T23:20:41.553Z,64.05
2019-04-06T23:23:10.371Z,65.95
2019-04-06T23:25:39.612Z,59.50
2019-04-06T23:28:08.257Z,63.63
2019-04-06T23:30:37.562Z,59.58
2019-04-06T23:33:06.638Z,65.67
2019-04-06T23:35:35.768Z,62.50
2019-04-06T23:38:04.321Z,55.50
2019-04-06T23:40:33.040Z,59.93
2019-04-06T23:43:02.817Z,63.75
2019-04-06T23:45:31.931Z,65.05
2019-04-06T23:48:01.605Z,61.80
2019-04-06T23:50:31.440Z,61.60
2019-04-06T23:53:00.706Z,61.00
2019-04-06T23:55:30.018Z,59.93
2019-04-06T23:57:59.529Z,59.95
